Time;durP1;ratioP1;P1;durP2;ratioP2;P2;SDS_P1;SDS_P2;PMS_P1;PMS_P2;Temp;Humidity;BMP_temperature;BMP_pressure;BME280_temperature;BME280_humidity;BME280_pressure;Samples;Min_cycle;Max_cycle;Signal;HPM_P1;HPM_P2
2022/05/05 00:01:12;;;;;;;5.82;4.38;;;;;;;9.86;63.20;100622.88;5094310;28;20519;-62
2022/05/05 00:03:41;;;;;;;6.07;4.40;;;;;;;9.95;62.78;100614.63;5094404;28;20052;-62
2022/05/05 00:06:08;;;;;;;8.13;5.07;;;;;;;10.03;62.53;100611.13;5094509;28;20052;-62
2022/05/05 00:08:36;;;;;;;9.00;4.60;;;;;;;10.12;62.56;100614.03;5094149;28;20052;-62
2022/05/05 00:16:33;;;;;;;8.93;4.63;;;;;;;10.39;62.00;100610.47;5100246;28;20071;-62
2022/05/05 00:19:02;;;;;;;6.93;4.72;;;;;;;10.45;62.03;100609.22;5094195;28;20063;-62
2022/05/05 00:21:29;;;;;;;10.13;4.90;;;;;;;10.53;62.10;100613.25;5094109;28;20051;-62
2022/05/05 00:23:56;;;;;;;9.57;4.55;;;;;;;10.59;61.84;100612.00;5094116;28;20490;-62
2022/05/05 00:26:24;;;;;;;6.32;4.40;;;;;;;10.67;61.70;100610.47;5093602;28;20044;-62
2022/05/05 00:28:51;;;;;;;10.45;4.97;;;;;;;10.71;61.55;100614.28;5093734;28;20055;-62
2022/05/05 00:31:18;;;;;;;10.10;5.80;;;;;;;10.76;61.65;100611.38;5094241;28;20581;-62
2022/05/05 00:33:46;;;;;;;6.32;4.43;;;;;;;10.83;61.62;100610.94;5093711;28;20055;-62
2022/05/05 00:36:14;;;;;;;6.43;4.80;;;;;;;10.89;61.65;100609.69;5093700;28;20056;-62
2022/05/05 00:38:42;;;;;;;8.32;5.75;;;;;;;10.94;61.38;100610.41;5093588;28;20063;-62
2022/05/05 00:41:09;;;;;;;8.02;5.00;;;;;;;10.99;61.03;100609.47;5094064;28;20052;-62
2022/05/05 00:43:37;;;;;;;9.73;5.68;;;;;;;11.02;60.93;100608.00;5092193;28;20048;-62
2022/05/05 00:46:04;;;;;;;7.53;5.10;;;;;;;11.04;61.15;100611.31;5093645;28;20048;-62
2022/05/05 00:48:32;;;;;;;8.50;4.82;;;;;;;11.06;61.14;100615.41;5093181;28;20052;-62
2022/05/05 00:51:00;;;;;;;7.38;4.75;;;;;;;11.10;61.14;100599.72;5093688;28;20059;-62
2022/05/05 00:53:29;;;;;;;7.15;4.43;;;;;;;11.14;61.58;100611.88;5093251;28;20055;-62
2022/05/05 00:55:57;;;;;;;7.73;4.17;;;;;;;11.17;61.51;100607.63;5093561;28;20055;-62
2022/05/05 00:58:26;;;;;;;7.22;4.65;;;;;;;11.20;61.49;100603.41;5090461;28;20504;-62
2022/05/05 01:00:55;;;;;;;7.68;4.32;;;;;;;11.21;61.79;100605.88;5093209;28;20446;-62
2022/05/05 01:03:24;;;;;;;7.50;4.72;;;;;;;11.25;61.48;100598.53;5093049;28;20052;-62
2022/05/05 01:05:51;;;;;;;7.90;5.30;;;;;;;11.29;61.58;100595.94;5093614;28;20048;-62
2022/05/05 01:08:19;;;;;;;7.28;5.45;;;;;;;11.29;61.72;100595.94;5093050;28;20044;-62
2022/05/05 01:10:48;;;;;;;7.57;5.00;;;;;;;11.34;61.19;100593.03;5092594;28;20044;-62
2022/05/05 04:08:42;;;;;;;7.65;5.35;;;;;;;11.81;60.91;100668.03;4443262;28;20044;-62
2022/05/05 04:11:10;;;;;;;7.80;4.35;;;;;;;11.87;60.85;100667.56;5093572;28;20055;-62
2022/05/05 04:13:37;;;;;;;7.72;5.20;;;;;;;11.86;60.40;100671.50;5094414;28;20393;-62
2022/05/05 04:16:05;;;;;;;10.48;5.53;;;;;;;11.91;59.61;100668.63;5094069;28;20067;-62
2022/05/05 04:18:33;;;;;;;8.35;4.80;;;;;;;11.89;59.83;100670.91;5093155;28;20040;-62
2022/05/05 04:21:01;;;;;;;7.80;4.68;;;;;;;11.98;59.92;100674.56;5093521;28;20554;-62
2022/05/05 04:23:28;;;;;;;8.75;5.28;;;;;;;12.06;59.69;100678.56;5094510;28;20052;-62
2022/05/05 04:25:57;;;;;;;11.85;5.10;;;;;;;12.12;59.63;100685.66;5093505;28;20052;-62
2022/05/05 04:28:25;;;;;;;9.50;5.93;;;;;;;12.19;60.12;100679.63;5092507;28;20048;-62
2022/05/05 04:30:52;;;;;;;8.05;5.68;;;;;;;12.27;60.35;100687.22;5093275;28;20063;-62
2022/05/05 04:33:20;;;;;;;8.27;4.82;;;;;;;12.33;60.08;100687.91;5092355;28;20052;-61
2022/05/05 04:35:48;;;;;;;10.45;6.20;;;;;;;12.34;60.90;100678.38;5093550;28;20052;-62
2022/05/05 04:38:15;;;;;;;8.55;5.63;;;;;;;12.36;61.19;100678.88;5088005;28;20051;-62
2022/05/05 04:40:43;;;;;;;11.70;6.18;;;;;;;12.46;60.79;100678.59;5096766;28;20055;-62
2022/05/05 04:43:11;;;;;;;10.05;5.22;;;;;;;12.63;59.78;100677.03;5093289;28;20059;-62
2022/05/05 04:45:39;;;;;;;10.43;5.57;;;;;;;12.68;59.02;100685.25;5091259;28;20528;-62
2022/05/05 04:48:07;;;;;;;7.95;5.38;;;;;;;12.73;58.88;100683.13;5093099;28;20044;-62
2022/05/05 04:50:34;;;;;;;10.05;5.55;;;;;;;12.75;58.19;100689.22;5093675;28;20052;-62
2022/05/05 04:53:02;;;;;;;11.15;5.88;;;;;;;12.78;57.53;100685.78;5093191;28;20050;-62
2022/05/05 04:55:29;;;;;;;9.75;5.13;;;;;;;12.63;58.49;100682.63;5091582;28;20063;-62
2022/05/05 04:57:57;;;;;;;9.45;4.93;;;;;;;12.67;58.36;100689.19;5092874;28;20073;-62
2022/05/05 05:00:25;;;;;;;7.57;4.50;;;;;;;12.74;58.57;100689.53;5093211;28;20472;-62
2022/05/05 05:02:53;;;;;;;9.27;5.13;;;;;;;12.76;58.40;100701.22;5093469;28;20428;-62
2022/05/05 05:05:20;;;;;;;6.15;4.68;;;;;;;12.78;58.12;100698.94;5091478;28;20051;-62
2022/05/05 05:07:47;;;;;;;8.95;4.80;;;;;;;12.81;58.13;100698.31;5092241;28;20051;-62
2022/05/05 05:10:15;;;;;;;8.98;5.10;;;;;;;12.84;57.36;100705.22;5092295;28;20048;-62
2022/05/05 05:12:42;;;;;;;7.55;4.57;;;;;;;12.84;57.01;100705.22;5092783;28;20052;-62
2022/05/05 05:15:10;;;;;;;9.63;5.10;;;;;;;12.82;57.37;100705.53;5093365;28;20334;-62
2022/05/05 05:17:39;;;;;;;8.77;4.85;;;;;;;12.89;57.46;100713.44;5090545;28;20063;-62
2022/05/05 05:20:09;;;;;;;10.27;5.67;;;;;;;12.89;57.76;100717.06;5090962;28;20404;-62
2022/05/05 05:22:37;;;;;;;11.02;6.55;;;;;;;12.92;57.63;100712.81;5082081;28;20059;-62
2022/05/05 05:25:05;;;;;;;9.40;5.80;;;;;;;12.95;57.38;100717.72;5092611;28;20070;-62
2022/05/05 05:27:33;;;;;;;8.00;5.45;;;;;;;12.94;57.93;100716.09;5092800;28;20443;-62
2022/05/05 05:30:00;;;;;;;8.63;5.35;;;;;;;12.93;58.09;100715.25;5091997;28;20056;-62
2022/05/05 05:32:27;;;;;;;8.40;4.75;;;;;;;13.06;58.16;100726.63;5091496;28;20052;-62
2022/05/05 05:34:58;;;;;;;10.55;5.60;;;;;;;13.14;57.42;100734.22;5092596;28;20416;-62
2022/05/05 05:37:25;;;;;;;7.93;5.15;;;;;;;13.20;57.31;100730.94;5086949;28;20056;-62
2022/05/05 05:39:53;;;;;;;8.32;5.43;;;;;;;13.17;57.45;100726.03;5108932;28;20043;-62
2022/05/05 05:42:20;;;;;;;8.30;5.60;;;;;;;13.24;56.99;100725.53;5092666;28;20052;-62
2022/05/05 05:44:47;;;;;;;12.15;6.40;;;;;;;13.28;56.55;100726.53;5092353;28;20056;-62
2022/05/05 05:47:15;;;;;;;8.40;5.07;;;;;;;13.34;56.57;100733.66;5090926;28;20048;-62
2022/05/05 05:49:42;;;;;;;6.00;4.38;;;;;;;13.55;56.65;100735.81;5092340;28;20134;-62
2022/05/05 05:52:11;;;;;;;8.95;5.60;;;;;;;13.71;56.29;100739.78;5092811;28;20040;-62
2022/05/05 05:54:38;;;;;;;9.35;5.55;;;;;;;13.88;55.75;100729.72;5092521;28;20508;-62
2022/05/05 05:57:09;;;;;;;9.98;5.68;;;;;;;14.02;55.80;100733.97;5091424;28;20056;-62
2022/05/05 05:59:36;;;;;;;9.25;5.13;;;;;;;14.14;54.67;100736.09;5091999;28;20056;-62
2022/05/05 06:04:49;;;;;;;10.00;5.40;;;;;;;14.49;53.41;100736.03;5094654;28;20511;-62
2022/05/05 06:07:18;;;;;;;10.82;5.50;;;;;;;14.56;52.44;100739.16;5091633;28;20048;-62
2022/05/05 06:09:45;;;;;;;9.10;5.22;;;;;;;14.74;51.80;100742.75;5091478;28;20188;-62
2022/05/05 06:12:12;;;;;;;9.02;5.47;;;;;;;14.85;51.40;100743.19;5092224;28;20079;-62
2022/05/05 06:14:40;;;;;;;8.38;5.63;;;;;;;14.99;51.44;100745.75;5091679;28;20401;-62
2022/05/05 06:17:07;;;;;;;7.40;5.20;;;;;;;15.14;51.54;100750.81;5090759;28;20055;-62
2022/05/05 06:19:35;;;;;;;7.53;5.25;;;;;;;15.25;50.68;100751.22;5091996;28;20048;-62
2022/05/05 06:22:05;;;;;;;9.75;5.72;;;;;;;15.32;50.41;100745.91;5092241;28;20397;-62
2022/05/05 06:24:34;;;;;;;8.85;5.30;;;;;;;15.51;50.16;100750.22;5092008;28;20059;-62
2022/05/05 06:27:01;;;;;;;7.73;5.83;;;;;;;15.50;50.21;100751.41;5091523;28;20416;-62
2022/05/05 06:29:30;;;;;;;7.65;4.85;;;;;;;15.68;50.19;100752.91;5092099;28;20044;-62
2022/05/05 06:31:57;;;;;;;9.33;5.23;;;;;;;15.83;49.51;100757.97;5092245;28;20056;-62
2022/05/05 06:34:25;;;;;;;12.38;5.50;;;;;;;15.95;49.20;100751.56;5091833;28;20064;-62
2022/05/05 06:36:52;;;;;;;9.35;6.22;;;;;;;16.05;49.59;100758.75;5091293;28;20052;-62
2022/05/05 06:39:19;;;;;;;10.00;6.30;;;;;;;16.19;50.13;100755.63;5091635;28;20044;-62
2022/05/05 06:41:48;;;;;;;8.38;5.80;;;;;;;16.31;49.96;100758.47;5091254;28;20051;-62
2022/05/05 06:44:16;;;;;;;10.20;5.68;;;;;;;16.39;49.66;100763.19;5090918;28;20059;-56
2022/05/05 06:46:44;;;;;;;9.73;6.05;;;;;;;16.43;49.51;100768.97;5079808;28;20374;-58
2022/05/05 06:49:12;;;;;;;13.45;5.63;;;;;;;16.55;49.52;100768.19;5086955;28;20063;-58
2022/05/05 06:51:39;;;;;;;10.20;6.78;;;;;;;16.61;49.21;100761.97;5090930;28;20066;-54
2022/05/05 06:54:07;;;;;;;11.70;5.70;;;;;;;16.76;49.37;100773.72;5090529;28;20473;-51
2022/05/05 06:56:34;;;;;;;8.43;5.47;;;;;;;16.80;49.00;100769.06;5090191;28;20396;-58
2022/05/05 06:59:03;;;;;;;8.05;5.80;;;;;;;16.89;48.57;100764.16;5096132;28;20047;-54
2022/05/05 07:07:00;;;;;;;7.85;6.00;;;;;;;17.20;48.76;100774.03;5092992;28;20059;-58
2022/05/05 07:12:13;;;;;;;8.35;5.57;;;;;;;17.55;47.65;100773.50;5093601;28;20110;-58
2022/05/05 07:14:43;;;;;;;7.57;5.47;;;;;;;17.68;47.42;100780.78;5098556;28;20094;-58
2022/05/05 07:17:11;;;;;;;7.00;5.53;;;;;;;17.83;46.99;100782.88;5092691;28;20059;-58
2022/05/05 07:19:38;;;;;;;7.13;5.18;;;;;;;17.95;46.25;100789.66;5094090;28;20059;-57
2022/05/05 07:22:07;;;;;;;11.10;5.90;;;;;;;18.11;46.58;100792.53;5094994;28;20052;-57
2022/05/05 07:24:34;;;;;;;9.68;5.18;;;;;;;18.27;46.07;100787.78;5083010;28;20052;-56
2022/05/05 07:27:02;;;;;;;9.50;5.80;;;;;;;18.41;45.59;100795.81;5092727;28;20056;-58
2022/05/05 07:29:30;;;;;;;9.95;6.18;;;;;;;18.60;45.99;100795.13;5098338;28;20059;-56
2022/05/05 07:32:01;;;;;;;10.93;5.78;;;;;;;18.77;45.30;100802.44;5091172;28;20048;-58
2022/05/05 07:34:29;;;;;;;10.55;5.82;;;;;;;19.06;44.75;100793.56;5084119;28;20054;-56
2022/05/05 07:36:56;;;;;;;8.57;5.25;;;;;;;19.40;43.30;100796.00;5092384;28;20056;-58
2022/05/05 07:39:24;;;;;;;7.75;5.25;;;;;;;19.85;43.00;100791.81;5097434;28;20059;-58
2022/05/05 07:41:51;;;;;;;7.47;5.50;;;;;;;20.91;39.84;100794.34;5105248;27;20496;-58
2022/05/05 07:44:18;;;;;;;11.18;5.80;;;;;;;21.85;37.53;100797.50;5091725;28;20055;-58
2022/05/05 07:46:46;;;;;;;9.60;5.50;;;;;;;22.08;35.77;100799.44;5093241;28;20522;-58
2022/05/05 07:49:15;;;;;;;9.15;5.25;;;;;;;22.25;34.74;100781.84;5092555;28;20048;-57
2022/05/05 07:51:42;;;;;;;7.28;5.00;;;;;;;22.28;34.78;100788.78;5093223;28;20435;-53
2022/05/05 07:57:11;;;;;;;;;;;;;;;22.78;32.28;100797.00;5067616;28;20049;-58
2022/05/05 07:59:40;;;;;;;9.77;5.75;;;;;;;23.43;32.45;100793.53;5070881;28;19935;-58
2022/05/05 08:02:13;;;;;;;6.88;4.93;;;;;;;23.93;31.55;100795.94;5081267;28;20059;-59
2022/05/05 08:04:42;;;;;;;10.23;5.60;;;;;;;24.86;29.63;100790.59;5091163;28;20092;-59
2022/05/05 08:07:10;;;;;;;9.38;5.32;;;;;;;25.15;29.37;100798.34;5093654;28;20048;-58
2022/05/05 08:09:38;;;;;;;12.65;6.43;;;;;;;25.31;29.20;100805.28;5093280;28;20052;-59
2022/05/05 08:12:07;;;;;;;11.50;5.18;;;;;;;26.47;27.05;100800.09;5092030;28;20052;-59
2022/05/05 08:14:35;;;;;;;11.48;5.88;;;;;;;27.30;25.98;100801.22;5092196;28;20056;-59
2022/05/05 08:17:02;;;;;;;9.23;5.20;;;;;;;27.77;25.46;100799.97;5092899;28;20055;-59
2022/05/05 08:19:29;;;;;;;10.27;5.90;;;;;;;28.67;24.00;100797.66;5096260;28;20059;-59
2022/05/05 08:21:58;;;;;;;11.85;5.53;;;;;;;29.64;22.79;100789.53;5093873;28;20703;-59
2022/05/05 08:29:55;;;;;;;8.23;6.15;;;;;;;31.62;20.17;100795.38;5099803;28;20054;-60
2022/05/05 08:32:22;;;;;;;9.35;6.28;;;;;;;32.16;19.47;100803.34;5093844;28;20052;-59
2022/05/05 08:34:50;;;;;;;8.30;5.70;;;;;;;32.96;18.91;100793.09;5092055;28;20052;-59
2022/05/05 08:37:19;;;;;;;8.65;6.28;;;;;;;33.69;18.93;100795.22;5092724;28;20059;-60
2022/05/05 08:39:46;;;;;;;8.40;6.50;;;;;;;34.52;17.62;100793.75;5090250;28;20052;-60
2022/05/05 08:42:14;;;;;;;11.60;6.75;;;;;;;35.05;17.11;100792.88;5093908;28;20052;-60
2022/05/05 08:44:41;;;;;;;9.77;7.83;;;;;;;35.56;16.64;100795.28;5089214;28;20052;-60
2022/05/05 08:47:11;;;;;;;8.88;6.07;;;;;;;35.72;16.23;100802.91;5094216;28;20059;-60
2022/05/05 08:49:41;;;;;;;9.07;6.55;;;;;;;36.09;16.50;100796.25;5093266;28;20056;-60
2022/05/05 08:52:12;;;;;;;9.10;6.43;;;;;;;36.50;15.87;100806.38;5092915;28;20048;-60
2022/05/05 08:54:42;;;;;;;8.38;6.13;;;;;;;37.26;15.54;100799.81;5090778;28;20052;-60
2022/05/05 08:57:12;;;;;;;9.10;6.07;;;;;;;37.83;14.38;100802.66;5093131;28;21868;-60
2022/05/05 08:59:39;;;;;;;10.20;6.53;;;;;;;38.36;13.80;100798.91;5093181;28;20059;-60
2022/05/05 09:02:07;;;;;;;10.13;7.22;;;;;;;38.77;13.36;100801.25;5092412;28;20056;-60
2022/05/05 09:04:35;;;;;;;;;;;;;;;38.76;13.32;100799.63;5092759;28;20048;-60
2022/05/05 09:07:03;;;;;;;10.90;8.07;;;;;;;39.45;12.70;100805.22;5087153;28;19920;-60
2022/05/05 09:09:31;;;;;;;11.23;7.25;;;;;;;39.92;12.54;100803.16;5092699;28;20416;-62
2022/05/05 09:12:14;;;;;;;12.00;8.27;;;;;;;40.80;12.35;100803.00;5091848;28;20055;-58
2022/05/05 09:14:44;;;;;;;9.00;7.63;;;;;;;41.46;11.54;100793.09;5090749;28;20048;-58
2022/05/05 09:17:14;;;;;;;10.43;8.80;;;;;;;41.68;11.38;100798.25;5091592;28;20047;-58
2022/05/05 09:19:43;;;;;;;10.38;9.25;;;;;;;42.10;11.29;100801.59;5091592;28;20052;-57
2022/05/05 09:22:12;;;;;;;11.02;8.75;;;;;;;41.97;11.07;100799.16;5092562;28;20492;-58
2022/05/05 09:24:43;;;;;;;12.80;9.77;;;;;;;40.42;11.90;100811.69;5091688;28;20060;-58
2022/05/05 09:27:26;;;;;;;13.77;9.48;;;;;;;39.56;12.71;100802.44;5091552;28;20504;-58
2022/05/05 09:30:07;;;;;;;13.55;9.27;;;;;;;39.93;12.83;100808.50;5092153;28;20048;-56
2022/05/05 09:32:36;;;;;;;13.20;9.88;;;;;;;39.91;12.57;100811.13;5091632;28;20412;-58
2022/05/05 09:35:08;;;;;;;12.98;10.68;;;;;;;40.73;12.08;100802.16;5090613;28;20503;-58
2022/05/05 09:37:36;;;;;;;12.80;11.48;;;;;;;40.91;12.07;100800.97;5092454;28;20052;-58
2022/05/05 09:40:06;;;;;;;;;;;;;;;39.88;12.02;100814.25;5092413;28;20048;-58
2022/05/05 09:42:40;;;;;;;13.70;12.23;;;;;;;39.66;12.96;100808.94;5091912;28;19920;-58
2022/05/05 09:45:21;;;;;;;16.05;12.40;;;;;;;40.43;12.13;100806.66;5090684;28;20059;-58
2022/05/05 09:47:50;;;;;;;14.80;12.18;;;;;;;41.13;11.87;100806.16;5090335;28;20048;-58
2022/05/05 09:50:20;;;;;;;14.38;12.20;;;;;;;40.45;11.40;100815.72;5091993;28;20408;-58
2022/05/05 09:58:22;;;;;;;12.80;11.50;;;;;;;42.43;11.17;100809.66;5088990;28;20047;-58
2022/05/05 10:00:59;;;;;;;12.90;11.57;;;;;;;42.15;10.58;100810.41;5090982;28;20059;-58
2022/05/05 10:06:26;;;;;;;12.38;10.20;;;;;;;43.63;10.31;100806.03;5094996;28;20052;-58
2022/05/05 10:08:54;;;;;;;12.32;10.80;;;;;;;43.76;9.49;100812.13;5091598;28;20388;-58
2022/05/05 10:11:22;;;;;;;10.40;9.30;;;;;;;44.11;10.43;100812.78;5091810;28;20069;-58
2022/05/05 10:13:51;;;;;;;11.68;9.70;;;;;;;43.32;10.04;100808.00;5092396;28;20048;-59
2022/05/05 10:16:20;;;;;;;12.85;9.88;;;;;;;41.60;11.42;100808.06;5091387;28;20056;-59
2022/05/05 10:18:48;;;;;;;12.27;9.52;;;;;;;39.45;12.36;100816.88;5089928;28;20044;-58
2022/05/05 10:21:32;;;;;;;11.80;10.57;;;;;;;37.60;13.49;100821.72;5087164;28;20040;-58
2022/05/05 10:24:09;;;;;;;12.57;11.25;;;;;;;35.97;14.33;100824.97;5087703;28;20408;-58
2022/05/05 10:26:37;;;;;;;17.07;11.30;;;;;;;34.68;15.69;100833.25;5088389;28;20055;-58
2022/05/05 10:29:36;;;;;;;15.60;12.40;;;;;;;33.40;16.61;100824.25;5085984;28;20060;-58
2022/05/05 10:32:10;;;;;;;12.02;10.68;;;;;;;34.56;16.95;100829.13;5089522;28;20047;-58
2022/05/05 10:34:39;;;;;;;13.80;12.23;;;;;;;35.48;15.80;100827.94;5092278;28;20058;-57
2022/05/05 10:37:09;;;;;;;13.63;10.52;;;;;;;36.24;15.46;100822.53;5089830;28;20391;-58
2022/05/05 10:39:47;;;;;;;12.77;11.45;;;;;;;36.64;15.09;100815.72;5089913;28;20048;-58
2022/05/05 10:42:16;;;;;;;14.77;11.32;;;;;;;36.05;14.76;100821.72;5088184;28;20048;-60
2022/05/05 10:45:09;;;;;;;12.35;10.15;;;;;;;35.65;15.02;100825.56;5090764;28;20055;-59
2022/05/05 10:48:19;;;;;;;12.50;11.05;;;;;;;34.88;16.20;100818.41;5089983;28;20063;-58
2022/05/05 10:51:03;;;;;;;12.93;11.10;;;;;;;35.43;15.16;100814.09;5093538;28;20055;-58
2022/05/05 10:53:37;;;;;;;13.27;11.20;;;;;;;35.29;15.60;100821.31;5089783;28;20044;-58
2022/05/05 10:56:25;;;;;;;12.63;10.57;;;;;;;34.95;16.31;100812.31;5086504;28;20056;-60
2022/05/05 10:59:13;;;;;;;13.20;11.33;;;;;;;34.18;16.61;100820.69;5088465;28;20507;-60
2022/05/05 11:02:01;;;;;;;15.63;11.23;;;;;;;33.41;17.16;100818.03;5090414;28;20059;-60
2022/05/05 11:04:30;;;;;;;13.27;11.77;;;;;;;32.70;17.25;100821.97;5089521;28;20052;-60
2022/05/05 11:07:25;;;;;;;13.57;11.25;;;;;;;32.35;18.06;100820.94;5090719;28;20048;-58
2022/05/05 11:09:53;;;;;;;14.40;11.27;;;;;;;33.12;17.87;100821.88;5088800;28;20063;-57
2022/05/05 11:12:22;;;;;;;13.00;11.70;;;;;;;33.98;17.26;100818.09;5086200;28;20048;-58
2022/05/05 11:23:42;;;;;;;12.73;11.52;;;;;;;37.64;14.30;100813.63;5094523;28;20500;-58
2022/05/05 11:26:10;;;;;;;12.68;10.80;;;;;;;37.74;14.30;100812.25;5090426;28;20051;-60
2022/05/05 11:28:38;;;;;;;12.05;10.80;;;;;;;37.41;14.54;100812.28;5090578;28;20520;-58
2022/05/05 11:31:15;;;;;;;11.30;10.17;;;;;;;37.52;13.81;100811.75;5091153;28;20048;-58
2022/05/05 11:33:48;;;;;;;11.97;9.87;;;;;;;36.89;14.31;100817.38;5089625;28;20412;-58
2022/05/05 11:36:16;;;;;;;11.20;9.80;;;;;;;35.76;14.59;100823.00;5085004;28;20489;-58
2022/05/05 11:38:43;;;;;;;;;;;;;;;34.40;15.40;100825.66;5083946;28;20056;-58
2022/05/05 11:41:11;;;;;;;11.77;10.57;;;;;;;34.41;15.56;100816.50;5089263;28;19931;-58
2022/05/05 11:46:25;;;;;;;10.20;9.20;;;;;;;36.32;14.75;100829.63;5097530;28;20060;-60
2022/05/05 11:48:55;;;;;;;12.25;8.95;;;;;;;37.04;14.23;100817.47;5094646;28;20492;-60
2022/05/05 11:51:26;;;;;;;10.13;9.13;;;;;;;37.85;13.14;100817.50;5087620;28;20052;-59
2022/05/05 11:54:02;;;;;;;9.57;8.57;;;;;;;38.03;12.47;100807.81;5091830;28;20044;-58
2022/05/05 11:56:30;;;;;;;10.05;9.05;;;;;;;37.86;13.10;100813.28;5093702;28;20048;-58
2022/05/05 12:01:59;;;;;;;10.95;8.48;;;;;;;37.71;14.21;100806.63;5087734;28;20059;-58
2022/05/05 12:04:28;;;;;;;10.73;8.68;;;;;;;37.17;13.95;100810.19;5093967;28;20056;-58
2022/05/05 12:06:59;;;;;;;11.45;8.65;;;;;;;36.56;14.46;100812.31;5093713;28;20055;-58
2022/05/05 12:09:27;;;;;;;11.00;8.80;;;;;;;36.06;14.69;100814.66;5093812;28;20056;-57
2022/05/05 12:11:55;;;;;;;10.57;8.65;;;;;;;35.40;15.47;100812.16;5091219;28;20055;-58
2022/05/05 12:14:23;;;;;;;11.93;9.37;;;;;;;34.12;16.08;100813.84;5101520;28;20060;-58
2022/05/05 12:16:52;;;;;;;10.85;8.85;;;;;;;33.77;17.35;100816.81;5093256;28;20052;-58
2022/05/05 12:19:21;;;;;;;10.95;9.07;;;;;;;33.57;16.59;100809.19;5093936;28;20051;-57
2022/05/05 12:21:57;;;;;;;10.57;9.05;;;;;;;32.82;17.23;100813.75;5092029;28;20151;-58
2022/05/05 12:24:27;;;;;;;9.40;8.43;;;;;;;32.90;17.21;100806.50;5093142;28;20048;-57
2022/05/05 12:27:07;;;;;;;9.38;8.35;;;;;;;33.31;16.97;100810.53;5093175;28;20052;-60
2022/05/05 12:29:39;;;;;;;8.77;7.78;;;;;;;33.51;17.03;100808.16;5099959;28;20052;-59
2022/05/05 12:32:10;;;;;;;9.80;7.63;;;;;;;33.21;16.68;100817.47;5096029;28;20054;-59
2022/05/05 12:34:39;;;;;;;9.10;7.72;;;;;;;32.42;17.51;100808.38;5094180;28;20058;-58
2022/05/05 12:37:23;;;;;;;9.10;8.00;;;;;;;31.78;17.88;100817.59;5093156;28;20056;-60
2022/05/05 12:40:01;;;;;;;8.93;7.60;;;;;;;31.30;18.76;100817.16;5091713;28;20048;-59
2022/05/05 12:42:39;;;;;;;9.23;7.35;;;;;;;30.54;19.90;100825.94;5092083;28;20059;-58
2022/05/05 12:45:07;;;;;;;9.05;7.47;;;;;;;29.88;20.53;100822.75;5098024;28;20040;-59
2022/05/05 12:47:40;;;;;;;9.68;6.97;;;;;;;29.61;20.12;100821.97;5094392;28;20408;-59
2022/05/05 12:50:35;;;;;;;8.20;6.72;;;;;;;28.97;20.77;100830.38;5086316;28;20051;-57
2022/05/05 13:01:34;;;;;;;9.27;7.03;;;;;;;29.80;21.42;100826.16;5091080;28;20063;-57
2022/05/05 13:04:05;;;;;;;8.15;7.13;;;;;;;30.31;20.26;100827.63;5091811;28;20056;-57
2022/05/05 13:06:36;;;;;;;11.40;7.43;;;;;;;30.23;20.26;100826.13;5092848;28;20504;-57
2022/05/05 13:09:08;;;;;;;8.00;6.90;;;;;;;29.88;19.87;100822.75;5091547;28;20530;-57
2022/05/05 13:11:36;;;;;;;9.15;7.05;;;;;;;29.68;20.54;100824.72;5091998;28;20062;-57
2022/05/05 13:14:03;;;;;;;8.15;6.25;;;;;;;29.56;20.10;100823.28;5096748;28;20052;-57
2022/05/05 13:16:36;;;;;;;7.57;6.22;;;;;;;29.44;21.07;100827.63;5092932;28;20055;-57
2022/05/05 13:19:05;;;;;;;7.82;6.55;;;;;;;29.17;21.77;100816.19;5090870;28;20519;-57
2022/05/05 13:21:36;;;;;;;8.82;6.18;;;;;;;28.83;20.57;100828.56;5091803;28;20056;-59
2022/05/05 13:24:06;;;;;;;8.15;6.60;;;;;;;28.60;21.53;100825.59;5092803;28;20059;-59
2022/05/05 13:26:33;;;;;;;10.50;6.65;;;;;;;28.44;21.18;100832.75;5093277;28;20376;-59
2022/05/05 13:29:01;;;;;;;8.70;7.03;;;;;;;28.20;21.39;100839.59;5092103;28;20055;-59
2022/05/05 13:31:29;;;;;;;8.60;7.07;;;;;;;27.76;21.79;100829.81;5092274;28;20056;-59
2022/05/05 13:33:56;;;;;;;7.97;6.93;;;;;;;26.97;22.69;100822.69;5091706;28;20044;-59
2022/05/05 13:36:23;;;;;;;9.07;6.82;;;;;;;27.01;23.19;100829.22;5092085;28;20064;-59
2022/05/05 13:38:51;;;;;;;9.25;6.45;;;;;;;26.70;23.53;100831.84;5091802;28;20048;-58
2022/05/05 13:41:19;;;;;;;8.07;6.03;;;;;;;26.61;23.89;100837.22;5092040;28;20056;-56
2022/05/05 13:43:47;;;;;;;8.02;5.93;;;;;;;26.44;24.19;100835.22;5091154;28;20071;-57
2022/05/05 13:46:17;;;;;;;7.25;5.43;;;;;;;26.12;23.66;100830.44;5091264;28;20047;-56
2022/05/05 13:48:44;;;;;;;6.00;5.07;;;;;;;26.10;24.88;100839.44;5091729;28;20056;-59
2022/05/05 13:51:14;;;;;;;6.72;5.65;;;;;;;26.01;24.22;100833.31;5090425;28;20055;-59
2022/05/05 13:53:41;;;;;;;6.85;5.18;;;;;;;25.96;24.62;100841.53;5091443;28;20500;-57
2022/05/05 13:56:10;;;;;;;6.80;4.80;;;;;;;25.80;24.33;100842.72;5091239;28;20048;-57
2022/05/05 13:58:38;;;;;;;5.68;4.65;;;;;;;25.72;25.04;100844.78;5091739;28;20055;-58
2022/05/05 14:01:06;;;;;;;5.60;4.80;;;;;;;25.60;25.02;100838.66;5092631;28;20444;-59
2022/05/05 14:03:33;;;;;;;7.90;4.78;;;;;;;25.51;25.11;100845.63;5090049;28;20048;-59
2022/05/05 14:06:00;;;;;;;7.53;5.10;;;;;;;25.36;25.36;100843.97;5090796;28;20052;-58
2022/05/05 14:13:59;;;;;;;7.95;5.32;;;;;;;25.22;25.68;100839.09;5096494;28;20507;-58
2022/05/05 14:16:26;;;;;;;;;;;;;;;24.91;26.70;100832.91;5092048;28;20048;-59
2022/05/05 14:18:54;;;;;;;5.75;5.10;;;;;;;24.91;26.54;100840.66;5090831;28;19920;-57
2022/05/05 14:21:21;;;;;;;8.43;5.13;;;;;;;24.80;27.08;100829.25;5090534;28;20048;-58
2022/05/05 14:23:49;;;;;;;6.53;4.70;;;;;;;24.85;26.39;100830.88;5091881;28;20048;-58
2022/05/05 14:26:16;;;;;;;8.13;5.15;;;;;;;24.85;26.88;100828.03;5090956;28;20055;-59
2022/05/05 14:28:44;;;;;;;6.93;5.40;;;;;;;24.71;27.30;100832.50;5091995;28;20056;-58
2022/05/05 14:31:13;;;;;;;6.03;5.03;;;;;;;24.49;27.33;100839.31;5089738;28;20052;-58
2022/05/05 14:33:40;;;;;;;8.13;5.40;;;;;;;24.43;27.36;100843.75;5093157;28;20062;-58
2022/05/05 14:36:08;;;;;;;7.70;5.68;;;;;;;24.35;26.88;100839.22;5089526;28;20055;-56
2022/05/05 14:38:35;;;;;;;6.93;4.90;;;;;;;24.26;27.21;100834.72;5089284;28;20048;-58
2022/05/05 14:41:02;;;;;;;7.55;5.55;;;;;;;24.05;27.80;100834.63;5087512;28;20048;-59
2022/05/05 14:43:30;;;;;;;7.05;5.78;;;;;;;23.97;27.42;100838.63;5099109;28;20048;-59
2022/05/05 14:45:57;;;;;;;7.18;6.15;;;;;;;23.84;27.36;100846.69;5090425;28;20067;-58
2022/05/05 14:48:28;;;;;;;5.85;5.15;;;;;;;23.81;27.20;100836.09;5108360;28;20051;-59
2022/05/05 14:50:55;;;;;;;6.47;5.40;;;;;;;23.80;27.93;100837.31;5086762;28;20148;-59
2022/05/05 14:53:23;;;;;;;7.22;5.47;;;;;;;23.76;27.51;100831.59;5091424;28;20052;-57
2022/05/05 14:55:50;;;;;;;6.30;5.38;;;;;;;23.73;28.60;100840.91;5088175;28;20048;-58
2022/05/05 14:58:20;;;;;;;6.97;5.97;;;;;;;23.68;28.90;100835.56;5089067;28;20075;-59
2022/05/05 15:00:48;;;;;;;7.40;5.47;;;;;;;23.70;27.52;100836.00;5086085;28;20070;-56
2022/05/05 15:03:15;;;;;;;8.07;5.68;;;;;;;23.79;27.92;100839.34;5091781;28;20400;-59
2022/05/05 15:05:45;;;;;;;7.03;5.00;;;;;;;23.95;28.15;100832.53;5091445;28;20138;-58
2022/05/05 15:08:12;;;;;;;8.18;5.38;;;;;;;23.87;27.89;100843.84;5091100;28;20063;-59
2022/05/05 15:10:40;;;;;;;5.00;4.50;;;;;;;23.90;28.71;100830.88;5090785;28;20063;-59
2022/05/05 15:13:07;;;;;;;6.47;4.30;;;;;;;23.96;27.81;100834.16;5091703;28;20048;-58
2022/05/05 15:15:34;;;;;;;5.93;4.57;;;;;;;23.98;27.69;100834.56;5091361;28;20511;-59
2022/05/05 15:18:02;;;;;;;5.60;4.13;;;;;;;24.04;27.96;100833.81;5093250;28;20056;-58
2022/05/05 15:20:30;;;;;;;4.95;4.45;;;;;;;24.14;28.26;100840.75;5094394;28;20059;-57
2022/05/05 15:22:59;;;;;;;5.70;4.10;;;;;;;24.11;27.98;100841.56;5095714;28;20408;-59
2022/05/05 15:25:29;;;;;;;5.78;4.13;;;;;;;24.11;27.80;100845.22;5095027;28;20052;-59
2022/05/05 15:27:56;;;;;;;5.10;3.75;;;;;;;24.08;27.35;100843.16;5095444;28;20052;-59
2022/05/05 15:30:24;;;;;;;7.13;3.58;;;;;;;24.08;27.17;100842.34;5094105;28;20071;-57